createdAt,value
2018-01-29T00:00:37.068Z,2.50
2018-01-29T00:01:39.927Z,3.00
2018-01-29T00:02:43.137Z,3.00
2018-01-29T00:03:46.137Z,3.00
2018-01-29T00:04:49.052Z,2.50
2018-01-29T00:05:51.955Z,3.00
2018-01-29T00:06:54.809Z,4.50
2018-01-29T00:07:57.599Z,5.00
2018-01-29T00:09:00.843Z,3.00
2018-01-29T00:10:03.694Z,3.00
2018-01-29T00:11:06.537Z,5.50
2018-01-29T00:12:09.365Z,2.50
2018-01-29T00:13:12.196Z,3.00
2018-01-29T00:14:15.889Z,3.00
2018-01-29T00:15:19.230Z,4.50
2018-01-29T00:16:22.798Z,3.00
2018-01-29T00:17:25.618Z,4.50
2018-01-29T00:18:28.499Z,3.00
2018-01-29T00:19:31.382Z,5.00
2018-01-29T00:20:34.312Z,2.50
2018-01-29T00:21:37.514Z,1.00
2018-01-29T00:22:40.384Z,5.00
2018-01-29T00:23:43.275Z,3.00
2018-01-29T00:24:46.128Z,2.50
2018-01-29T00:25:49.149Z,2.00
2018-01-29T00:26:52.012Z,4.50
2018-01-29T00:27:55.352Z,3.50
2018-01-29T00:28:58.292Z,3.50
2018-01-29T00:30:01.199Z,3.00
2018-01-29T00:31:04.092Z,2.00
2018-01-29T00:32:06.978Z,1.00
2018-01-29T00:33:09.833Z,4.00
2018-01-29T00:34:13.229Z,5.00
2018-01-29T00:35:16.093Z,3.00
2018-01-29T00:36:19.001Z,3.00
2018-01-29T00:37:21.862Z,3.00
2018-01-29T00:38:24.743Z,4.50
2018-01-29T00:39:27.626Z,5.00
2018-01-29T00:40:30.864Z,4.00
2018-01-29T00:41:33.783Z,6.00
2018-01-29T00:42:36.693Z,4.50
2018-01-29T00:43:39.690Z,4.50
2018-01-29T00:44:42.563Z,5.00
2018-01-29T00:45:45.481Z,4.00
2018-01-29T00:46:48.719Z,2.50
2018-01-29T00:47:51.653Z,4.00
2018-01-29T00:48:54.686Z,3.00
2018-01-29T00:49:57.557Z,3.00
2018-01-29T00:51:00.437Z,4.50
2018-01-29T00:52:03.314Z,3.00
2018-01-29T00:53:06.580Z,3.00
2018-01-29T00:54:09.452Z,3.00
2018-01-29T00:55:12.376Z,3.50
2018-01-29T00:56:15.285Z,5.00
2018-01-29T00:57:18.300Z,3.50
2018-01-29T00:58:21.187Z,5.00
2018-01-29T00:59:24.472Z,3.00
2018-01-29T01:00:27.348Z,5.00
2018-01-29T01:01:30.219Z,5.00
2018-01-29T01:02:33.131Z,6.50
2018-01-29T01:03:35.997Z,3.00
2018-01-29T01:04:38.983Z,5.00
2018-01-29T01:05:42.240Z,4.00
2018-01-29T01:06:45.134Z,3.00
2018-01-29T01:07:47.988Z,6.00
2018-01-29T01:08:50.918Z,5.50
2018-01-29T01:09:53.844Z,7.00
2018-01-29T01:10:56.757Z,7.00
2018-01-29T01:12:00.130Z,5.00
2018-01-29T01:13:03.024Z,5.50
2018-01-29T01:14:05.882Z,3.50
2018-01-29T01:15:08.752Z,3.50
2018-01-29T01:16:11.747Z,4.00
2018-01-29T01:17:14.611Z,4.50
2018-01-29T01:18:17.983Z,1.50
2018-01-29T01:19:20.907Z,3.50
2018-01-29T01:20:23.796Z,6.00
2018-01-29T01:21:26.705Z,4.50
2018-01-29T01:22:29.583Z,3.00
2018-01-29T01:23:32.468Z,2.00
2018-01-29T01:24:35.786Z,3.00
2018-01-29T01:25:38.682Z,5.00
2018-01-29T01:26:41.542Z,3.00
2018-01-29T01:27:44.442Z,4.25
2018-01-29T01:28:47.310Z,5.25
2018-01-29T01:29:50.209Z,6.00
2018-01-29T01:30:53.591Z,4.50
2018-01-29T01:31:56.564Z,5.00
2018-01-29T01:32:59.407Z,5.75
2018-01-29T01:34:02.297Z,3.00
2018-01-29T01:35:05.200Z,4.25
2018-01-29T01:36:08.146Z,3.75
2018-01-29T01:37:11.434Z,1.75
2018-01-29T01:38:14.307Z,3.75
2018-01-29T01:39:17.210Z,4.50
2018-01-29T01:40:20.108Z,5.00
2018-01-29T01:41:22.980Z,3.50
2018-01-29T01:42:25.841Z,3.00
2018-01-29T01:43:29.103Z,3.00
2018-01-29T01:44:31.980Z,2.00
2018-01-29T01:45:34.852Z,4.00
2018-01-29T01:46:37.726Z,3.50
2018-01-29T01:47:40.644Z,1.00
2018-01-29T01:48:43.552Z,1.50
2018-01-29T01:49:46.726Z,3.50
2018-01-29T01:50:49.609Z,2.50
2018-01-29T01:51:52.491Z,3.00
2018-01-29T01:52:55.348Z,3.00
2018-01-29T01:53:58.497Z,5.00
2018-01-29T01:55:01.388Z,6.00
2018-01-29T01:56:04.610Z,5.00
2018-01-29T01:57:07.477Z,4.00
2018-01-29T01:58:10.423Z,5.00
2018-01-29T01:59:13.327Z,4.50
2018-01-29T02:00:16.215Z,3.00
2018-01-29T02:01:19.133Z,5.00
2018-01-29T02:02:22.470Z,5.00
2018-01-29T02:03:25.343Z,4.00
2018-01-29T02:04:28.189Z,3.50
2018-01-29T02:05:31.053Z,3.50
2018-01-29T02:06:33.954Z,3.00
2018-01-29T02:07:36.819Z,3.25
2018-01-29T02:08:40.083Z,6.75
2018-01-29T02:09:43.019Z,4.75
2018-01-29T02:10:45.889Z,5.75
2018-01-29T02:11:48.759Z,5.75
2018-01-29T02:12:51.629Z,6.50
2018-01-29T02:13:54.520Z,7.00
2018-01-29T02:14:57.745Z,6.25
2018-01-29T02:16:00.593Z,5.75
2018-01-29T02:17:03.740Z,3.75
2018-01-29T02:18:06.596Z,4.00
2018-01-29T02:19:09.464Z,3.75
2018-01-29T02:20:12.461Z,7.25
2018-01-29T02:21:15.790Z,3.75
2018-01-29T02:22:18.685Z,3.75
2018-01-29T02:23:21.561Z,5.75
2018-01-29T02:24:24.430Z,3.75
2018-01-29T02:25:27.382Z,5.75
2018-01-29T02:26:30.260Z,5.75
2018-01-29T02:27:33.450Z,6.75
2018-01-29T02:28:36.319Z,2.75
2018-01-29T02:29:39.179Z,3.75
2018-01-29T02:30:42.045Z,3.75
2018-01-29T02:31:44.936Z,3.75
2018-01-29T02:32:47.824Z,5.00
2018-01-29T02:33:51.108Z,5.25
2018-01-29T02:34:53.993Z,5.75
2018-01-29T02:35:56.886Z,5.75
2018-01-29T02:36:59.786Z,5.75
2018-01-29T02:38:02.713Z,5.75
2018-01-29T02:39:05.946Z,5.75
2018-01-29T02:40:09.174Z,5.75
2018-01-29T02:41:12.077Z,2.75
2018-01-29T02:42:14.953Z,8.75
2018-01-29T02:43:17.991Z,3.75
2018-01-29T02:44:20.922Z,4.25
2018-01-29T02:45:23.937Z,3.75
2018-01-29T02:46:27.440Z,4.75
2018-01-29T02:47:30.386Z,3.50
2018-01-29T02:48:33.394Z,5.50
2018-01-29T02:49:36.349Z,3.00
2018-01-29T02:50:39.464Z,3.00
2018-01-29T02:51:42.490Z,5.00
2018-01-29T02:52:45.917Z,5.50
2018-01-29T02:53:48.964Z,3.00
2018-01-29T02:54:52.066Z,3.00
2018-01-29T02:55:55.103Z,3.00
2018-01-29T02:56:58.229Z,6.00
2018-01-29T02:58:01.333Z,3.50
2018-01-29T02:59:04.788Z,3.50
2018-01-29T03:00:07.720Z,3.00
2018-01-29T03:01:10.649Z,4.00
2018-01-29T03:02:13.585Z,5.00
2018-01-29T03:03:16.487Z,4.00
2018-01-29T03:04:19.331Z,5.00
2018-01-29T03:05:22.612Z,2.50
2018-01-29T03:06:26.024Z,4.50
2018-01-29T03:07:28.839Z,2.00
2018-01-29T03:08:31.644Z,1.00
2018-01-29T03:09:34.464Z,3.00
2018-01-29T03:10:37.307Z,3.50
2018-01-29T03:11:40.478Z,3.00
2018-01-29T03:12:43.303Z,3.00
2018-01-29T03:13:46.112Z,1.50
2018-01-29T03:14:48.984Z,4.00
2018-01-29T03:15:51.813Z,3.50
2018-01-29T03:16:54.648Z,3.00
2018-01-29T03:17:57.931Z,3.00
2018-01-29T03:19:00.762Z,3.00
2018-01-29T03:20:03.722Z,1.00
2018-01-29T03:21:06.650Z,1.00
2018-01-29T03:22:09.589Z,3.00
2018-01-29T03:23:12.538Z,5.00
2018-01-29T03:24:16.220Z,3.00
2018-01-29T03:25:19.175Z,1.00
2018-01-29T03:26:22.152Z,3.00
2018-01-29T03:27:24.993Z,1.00
2018-01-29T03:28:27.830Z,1.00
2018-01-29T03:29:30.652Z,3.00
2018-01-29T03:30:33.869Z,1.00
2018-01-29T03:31:36.727Z,1.50
2018-01-29T03:32:39.565Z,3.00
2018-01-29T03:33:42.423Z,2.00
2018-01-29T03:34:45.223Z,3.00
2018-01-29T03:35:48.170Z,2.00
2018-01-29T03:36:51.395Z,1.00
2018-01-29T03:37:54.291Z,1.00
2018-01-29T03:38:57.242Z,2.00
2018-01-29T03:40:00.218Z,0.75
2018-01-29T03:41:03.139Z,0.00
2018-01-29T03:42:06.051Z,1.00
2018-01-29T03:43:09.268Z,1.50
2018-01-29T03:44:12.218Z,0.00
2018-01-29T03:45:15.127Z,2.50
2018-01-29T03:46:18.032Z,1.00
2018-01-29T03:47:20.955Z,2.50
2018-01-29T03:48:23.860Z,2.50
2018-01-29T03:49:27.140Z,0.75
2018-01-29T03:50:30.139Z,1.00
2018-01-29T03:51:33.020Z,1.00
2018-01-29T03:52:35.931Z,2.50
2018-01-29T03:53:38.855Z,2.00
2018-01-29T03:54:41.770Z,1.00
2018-01-29T03:55:45.924Z,1.50
2018-01-29T03:56:48.807Z,1.00
2018-01-29T03:57:51.733Z,1.00
2018-01-29T03:58:54.634Z,1.50
2018-01-29T03:59:57.575Z,2.50
2018-01-29T04:01:00.463Z,1.00
2018-01-29T04:02:03.868Z,1.00
2018-01-29T04:03:06.775Z,1.00
2018-01-29T04:04:09.684Z,1.00
2018-01-29T04:05:12.600Z,1.50
2018-01-29T04:06:15.528Z,3.00
2018-01-29T04:07:18.427Z,3.00
2018-01-29T04:08:21.755Z,1.00
2018-01-29T04:09:24.646Z,3.00
2018-01-29T04:10:27.552Z,1.00
2018-01-29T04:11:30.498Z,1.00
2018-01-29T04:12:33.423Z,1.00
2018-01-29T04:13:36.323Z,1.00
2018-01-29T04:14:39.573Z,0.50
2018-01-29T04:15:43.331Z,1.00
2018-01-29T04:16:46.217Z,1.00
2018-01-29T04:17:49.115Z,0.50
2018-01-29T04:18:52.008Z,1.00
2018-01-29T04:19:55.400Z,2.00
2018-01-29T04:20:58.344Z,1.00
2018-01-29T04:22:01.260Z,1.00
2018-01-29T04:23:04.181Z,2.00
2018-01-29T04:24:07.072Z,1.00
2018-01-29T04:25:10.036Z,1.00
2018-01-29T04:26:13.398Z,0.75
2018-01-29T04:27:16.302Z,1.00
2018-01-29T04:28:19.199Z,1.00
2018-01-29T04:29:22.110Z,1.00
2018-01-29T04:30:24.999Z,1.00
2018-01-29T04:31:28.069Z,0.50
2018-01-29T04:32:31.508Z,1.00
2018-01-29T04:33:34.398Z,1.00
2018-01-29T04:34:37.354Z,1.00
2018-01-29T04:35:40.254Z,1.00
2018-01-29T04:36:43.193Z,1.00
2018-01-29T04:37:46.089Z,1.00
2018-01-29T04:38:48.981Z,1.00
2018-01-29T04:39:51.884Z,1.00
2018-01-29T04:40:54.704Z,1.00
2018-01-29T04:41:57.643Z,1.00
2018-01-29T04:43:00.538Z,1.00
2018-01-29T04:44:04.106Z,1.00
2018-01-29T04:45:07.158Z,0.00
2018-01-29T04:46:10.259Z,0.75
2018-01-29T04:47:13.283Z,1.00
2018-01-29T04:48:16.203Z,1.00
2018-01-29T04:49:19.084Z,1.00
2018-01-29T04:50:22.314Z,0.00
2018-01-29T04:51:25.233Z,1.00
2018-01-29T04:52:28.209Z,1.00
2018-01-29T04:53:31.230Z,1.00
2018-01-29T04:54:34.167Z,0.25
2018-01-29T04:55:37.109Z,1.00
2018-01-29T04:56:40.014Z,1.00
2018-01-29T04:57:42.949Z,0.00
2018-01-29T04:58:45.845Z,1.00
2018-01-29T04:59:48.837Z,1.00
2018-01-29T05:00:51.749Z,1.00
2018-01-29T05:01:54.919Z,0.50
2018-01-29T05:02:57.931Z,1.00
2018-01-29T05:04:00.862Z,0.75
2018-01-29T05:05:03.780Z,0.00
2018-01-29T05:06:06.678Z,0.50
2018-01-29T05:07:09.866Z,0.75
2018-01-29T05:08:12.775Z,0.50
2018-01-29T05:09:15.673Z,0.25
2018-01-29T05:10:18.650Z,1.00
2018-01-29T05:11:21.588Z,1.00
2018-01-29T05:12:24.523Z,1.00
2018-01-29T05:13:27.859Z,1.00
2018-01-29T05:14:30.790Z,1.00
2018-01-29T05:15:33.682Z,1.00
2018-01-29T05:16:36.579Z,0.00
2018-01-29T05:17:39.502Z,1.50
2018-01-29T05:18:42.483Z,0.75
2018-01-29T05:19:45.725Z,1.00
2018-01-29T05:20:48.656Z,0.50
2018-01-29T05:21:51.825Z,0.25
2018-01-29T05:22:54.709Z,0.00
2018-01-29T05:23:57.585Z,1.00
2018-01-29T05:25:00.495Z,0.25
2018-01-29T05:26:03.733Z,0.00
2018-01-29T05:27:06.643Z,1.00
2018-01-29T05:28:09.627Z,0.50
2018-01-29T05:29:12.534Z,0.00
2018-01-29T05:30:15.470Z,0.00
2018-01-29T05:31:18.402Z,1.00
2018-01-29T05:32:21.819Z,1.00
2018-01-29T05:33:24.749Z,0.00
2018-01-29T05:34:27.818Z,1.00
2018-01-29T05:35:30.841Z,0.50
2018-01-29T05:36:34.579Z,1.00
2018-01-29T05:37:37.625Z,1.00
2018-01-29T05:38:41.044Z,0.75
2018-01-29T05:39:44.072Z,1.00
2018-01-29T05:40:47.002Z,1.00
2018-01-29T05:41:49.973Z,1.00
2018-01-29T05:42:52.817Z,0.25
2018-01-29T05:43:55.779Z,0.75
2018-01-29T05:44:58.968Z,1.00
2018-01-29T05:46:01.821Z,1.00
2018-01-29T05:47:04.829Z,1.00
2018-01-29T05:48:07.722Z,1.00
2018-01-29T05:49:10.618Z,2.50
2018-01-29T05:50:13.419Z,1.00
2018-01-29T05:51:17.190Z,0.75
2018-01-29T05:52:20.160Z,1.00
2018-01-29T05:53:22.927Z,3.00
2018-01-29T05:54:26.004Z,1.00
2018-01-29T05:55:28.967Z,0.75
2018-01-29T05:56:31.917Z,1.00
2018-01-29T05:57:35.249Z,1.50
2018-01-29T05:58:38.248Z,0.00
2018-01-29T05:59:41.175Z,1.00
2018-01-29T06:00:44.117Z,2.00
2018-01-29T06:01:47.043Z,1.00
2018-01-29T06:02:50.081Z,1.00
2018-01-29T06:03:53.266Z,0.75
2018-01-29T06:04:56.329Z,1.00
2018-01-29T06:05:59.277Z,1.00
2018-01-29T06:07:02.179Z,1.00
2018-01-29T06:08:05.086Z,0.50
2018-01-29T06:09:08.038Z,2.00
2018-01-29T06:10:11.231Z,1.00
2018-01-29T06:11:14.135Z,2.50
2018-01-29T06:12:17.056Z,1.00
2018-01-29T06:13:19.935Z,1.00
2018-01-29T06:14:22.878Z,1.00
2018-01-29T06:15:25.794Z,1.00
2018-01-29T06:16:29.031Z,1.00
2018-01-29T06:17:31.998Z,3.00
2018-01-29T06:18:34.917Z,1.00
2018-01-29T06:19:37.906Z,1.00
2018-01-29T06:20:40.829Z,1.00
2018-01-29T06:21:43.761Z,1.00
2018-01-29T06:22:46.945Z,0.50
2018-01-29T06:23:49.713Z,1.50
2018-01-29T06:24:52.492Z,0.75
2018-01-29T06:25:55.411Z,1.00
2018-01-29T06:26:58.376Z,1.00
2018-01-29T06:28:01.440Z,1.00
2018-01-29T06:29:04.671Z,0.25
2018-01-29T06:30:07.648Z,1.00
2018-01-29T06:31:10.616Z,1.00
2018-01-29T06:32:13.554Z,1.00
2018-01-29T06:33:16.503Z,1.00
2018-01-29T06:34:19.430Z,0.00
2018-01-29T06:35:22.793Z,0.25
2018-01-29T06:36:26.732Z,0.00
2018-01-29T06:37:29.753Z,1.00
2018-01-29T06:38:32.685Z,1.00
2018-01-29T06:39:35.729Z,1.00
2018-01-29T06:40:38.723Z,1.00
2018-01-29T06:41:41.788Z,0.75
2018-01-29T06:42:45.310Z,1.00
2018-01-29T06:43:48.599Z,0.00
2018-01-29T06:44:51.604Z,1.00
2018-01-29T06:45:54.602Z,2.00
2018-01-29T06:46:57.776Z,1.00
2018-01-29T06:48:00.694Z,1.50
2018-01-29T06:49:03.591Z,1.00
2018-01-29T06:50:06.498Z,0.00
2018-01-29T06:51:09.468Z,1.00
2018-01-29T06:52:12.380Z,1.50
2018-01-29T06:53:15.860Z,0.75
2018-01-29T06:54:18.817Z,1.00
2018-01-29T06:55:21.777Z,0.25
2018-01-29T06:56:24.700Z,0.75
2018-01-29T06:57:27.720Z,0.00
2018-01-29T06:58:30.645Z,0.25
2018-01-29T06:59:34.049Z,0.00
2018-01-29T07:00:37.035Z,1.00
2018-01-29T07:01:39.969Z,1.00
2018-01-29T07:02:42.889Z,1.00
2018-01-29T07:03:46.020Z,0.00
2018-01-29T07:04:49.030Z,1.00
2018-01-29T07:05:52.310Z,0.75
2018-01-29T07:06:55.342Z,1.00
2018-01-29T07:07:58.271Z,0.75
2018-01-29T07:09:01.212Z,0.75
2018-01-29T07:10:04.123Z,1.00
2018-01-29T07:11:07.038Z,1.00
2018-01-29T07:12:10.312Z,0.75
2018-01-29T07:13:13.246Z,1.00
2018-01-29T07:14:16.171Z,0.75
2018-01-29T07:15:19.097Z,0.00
2018-01-29T07:16:22.023Z,0.00
2018-01-29T07:17:24.979Z,0.50
2018-01-29T07:18:28.478Z,1.00
2018-01-29T07:19:31.417Z,1.00
2018-01-29T07:20:34.339Z,0.00
2018-01-29T07:21:37.300Z,0.00
2018-01-29T07:22:40.209Z,0.00
2018-01-29T07:23:43.166Z,1.00
2018-01-29T07:24:46.460Z,1.00
2018-01-29T07:25:49.357Z,1.00
2018-01-29T07:26:52.251Z,0.00
2018-01-29T07:27:55.079Z,1.00
2018-01-29T07:28:57.987Z,0.00
2018-01-29T07:30:00.860Z,0.00
2018-01-29T07:31:04.039Z,1.00
2018-01-29T07:32:06.966Z,0.00
2018-01-29T07:33:09.987Z,0.75
2018-01-29T07:34:13.223Z,1.00
2018-01-29T07:35:16.183Z,1.00
2018-01-29T07:36:19.081Z,1.00
2018-01-29T07:37:22.794Z,0.00
2018-01-29T07:38:25.737Z,0.00
2018-01-29T07:39:28.733Z,0.00
2018-01-29T07:40:31.680Z,1.00
2018-01-29T07:41:34.606Z,0.00
2018-01-29T07:42:37.961Z,0.00
2018-01-29T07:43:40.878Z,1.00
2018-01-29T07:44:43.728Z,0.00
2018-01-29T07:45:46.557Z,1.00
2018-01-29T07:46:49.422Z,0.50
2018-01-29T07:47:52.254Z,1.00
2018-01-29T07:48:55.399Z,0.00
2018-01-29T07:49:58.231Z,0.00
2018-01-29T07:51:01.120Z,0.00
2018-01-29T07:52:04.106Z,0.00
2018-01-29T07:53:07.284Z,0.25
2018-01-29T07:54:10.222Z,0.00
2018-01-29T07:55:13.434Z,0.00
2018-01-29T07:56:16.350Z,0.00
2018-01-29T07:57:19.296Z,0.00
2018-01-29T07:58:22.283Z,0.00
2018-01-29T07:59:25.624Z,0.25
2018-01-29T08:00:28.531Z,0.50
2018-01-29T08:01:31.939Z,0.50
2018-01-29T08:02:34.962Z,1.00
2018-01-29T08:03:37.912Z,0.00
2018-01-29T08:04:40.909Z,0.00
2018-01-29T08:05:43.846Z,0.00
2018-01-29T08:06:46.790Z,0.00
2018-01-29T08:07:50.294Z,0.00
2018-01-29T08:08:54.430Z,1.00
2018-01-29T08:09:57.422Z,0.00
2018-01-29T08:11:00.380Z,0.00
2018-01-29T08:12:03.300Z,0.00
2018-01-29T08:13:06.195Z,0.25
2018-01-29T08:14:09.515Z,1.00
2018-01-29T08:15:12.466Z,0.00
2018-01-29T08:16:15.359Z,0.00
2018-01-29T08:17:18.315Z,0.00
2018-01-29T08:18:21.359Z,0.00
2018-01-29T08:19:24.326Z,0.00
2018-01-29T08:20:27.565Z,0.00
2018-01-29T08:21:30.461Z,0.00
2018-01-29T08:22:33.980Z,0.00
2018-01-29T08:23:36.866Z,0.00
2018-01-29T08:24:39.897Z,0.00
2018-01-29T08:25:42.912Z,0.00
2018-01-29T08:26:45.853Z,0.00
2018-01-29T08:27:48.753Z,0.50
2018-01-29T08:28:51.671Z,0.00
2018-01-29T08:29:54.867Z,0.25
2018-01-29T08:30:57.841Z,0.00
2018-01-29T08:32:01.239Z,0.75
2018-01-29T08:33:04.207Z,0.00
2018-01-29T08:34:07.150Z,0.25
2018-01-29T08:35:10.057Z,0.00
2018-01-29T08:36:13.032Z,0.00
2018-01-29T08:37:16.043Z,1.00
2018-01-29T08:38:19.377Z,0.25
2018-01-29T08:39:22.346Z,1.00
2018-01-29T08:40:25.496Z,1.00
2018-01-29T08:41:28.482Z,0.50
2018-01-29T08:42:31.442Z,0.75
2018-01-29T08:43:34.458Z,0.00
2018-01-29T08:44:38.102Z,1.75
2018-01-29T08:45:41.197Z,0.00
2018-01-29T08:46:44.200Z,0.00
2018-01-29T08:47:47.131Z,0.00
2018-01-29T08:48:50.038Z,0.00
2018-01-29T08:49:52.967Z,0.00
2018-01-29T08:50:56.323Z,0.00
2018-01-29T08:51:59.237Z,0.25
2018-01-29T08:53:02.281Z,1.00
2018-01-29T08:54:05.242Z,0.00
2018-01-29T08:55:08.180Z,0.00
2018-01-29T08:56:11.118Z,1.00
2018-01-29T08:57:14.269Z,0.50
2018-01-29T08:58:17.139Z,0.00
2018-01-29T08:59:20.127Z,1.00
2018-01-29T09:00:22.949Z,0.00
2018-01-29T09:01:25.802Z,0.75
2018-01-29T09:02:28.731Z,0.50
2018-01-29T09:03:32.017Z,0.00
2018-01-29T09:04:34.844Z,1.00
2018-01-29T09:05:37.689Z,0.00
2018-01-29T09:06:40.524Z,0.00
2018-01-29T09:07:43.608Z,1.00
2018-01-29T09:08:46.543Z,0.00
2018-01-29T09:09:50.275Z,0.50
2018-01-29T09:10:53.403Z,1.00
2018-01-29T09:11:56.367Z,1.00
2018-01-29T09:13:00.287Z,1.00
2018-01-29T09:14:03.248Z,1.00
2018-01-29T09:15:06.173Z,1.00
2018-01-29T09:16:09.579Z,0.00
2018-01-29T09:17:12.512Z,0.75
2018-01-29T09:18:15.443Z,0.50
2018-01-29T09:19:18.431Z,2.00
2018-01-29T09:20:21.361Z,0.25
2018-01-29T09:21:25.195Z,0.00
2018-01-29T09:22:28.438Z,1.00
2018-01-29T09:23:31.401Z,0.00
2018-01-29T09:24:34.324Z,0.00
2018-01-29T09:25:37.253Z,0.00
2018-01-29T09:26:40.237Z,1.00
2018-01-29T09:27:43.179Z,1.00
2018-01-29T09:28:46.503Z,0.75
2018-01-29T09:29:49.484Z,1.00
2018-01-29T09:30:52.432Z,1.00
2018-01-29T09:31:55.346Z,0.25
2018-01-29T09:32:58.345Z,0.25
2018-01-29T09:34:01.343Z,1.00
2018-01-29T09:35:05.537Z,0.75
2018-01-29T09:36:08.433Z,0.75
2018-01-29T09:37:11.256Z,0.75
2018-01-29T09:38:14.105Z,1.00
2018-01-29T09:39:16.914Z,0.00
2018-01-29T09:40:19.870Z,3.00
2018-01-29T09:41:23.183Z,1.00
2018-01-29T09:42:26.199Z,1.00
2018-01-29T09:43:29.250Z,2.00
2018-01-29T09:44:32.188Z,0.50
2018-01-29T09:45:35.202Z,0.50
2018-01-29T09:46:38.171Z,1.75
2018-01-29T09:47:41.625Z,1.00
2018-01-29T09:48:44.726Z,0.75
2018-01-29T09:49:47.837Z,1.00
2018-01-29T09:50:50.875Z,1.00
2018-01-29T09:51:53.842Z,0.75
2018-01-29T09:52:56.759Z,3.00
2018-01-29T09:54:00.188Z,0.00
2018-01-29T09:55:03.202Z,1.00
2018-01-29T09:56:06.755Z,0.00
2018-01-29T09:57:09.630Z,1.00
2018-01-29T09:58:12.566Z,1.00
2018-01-29T09:59:15.499Z,0.75
2018-01-29T10:00:18.908Z,1.00
2018-01-29T10:01:21.862Z,1.00
2018-01-29T10:02:24.832Z,2.50
2018-01-29T10:03:27.732Z,0.00
2018-01-29T10:04:30.648Z,1.00
2018-01-29T10:05:33.765Z,1.00
2018-01-29T10:06:37.431Z,1.00
2018-01-29T10:07:40.405Z,1.00
2018-01-29T10:08:43.351Z,1.00
2018-01-29T10:09:46.262Z,1.00
2018-01-29T10:10:49.392Z,1.00
2018-01-29T10:11:52.313Z,1.00
2018-01-29T10:12:55.613Z,1.00
2018-01-29T10:13:58.567Z,1.00
2018-01-29T10:15:01.497Z,1.00
2018-01-29T10:16:04.412Z,1.50
2018-01-29T10:17:07.393Z,1.75
2018-01-29T10:18:10.331Z,1.00
2018-01-29T10:19:13.805Z,1.00
2018-01-29T10:20:16.787Z,0.50
2018-01-29T10:21:19.746Z,1.50
2018-01-29T10:22:22.685Z,1.50
2018-01-29T10:23:25.710Z,4.00
2018-01-29T10:24:28.696Z,1.00
2018-01-29T10:25:32.015Z,1.00
2018-01-29T10:29:12.601Z,2.75
2018-01-29T10:30:15.572Z,1.75
2018-01-29T10:32:38.490Z,2.50
2018-01-29T10:34:08.246Z,1.75
2018-01-29T10:36:31.601Z,4.00
2018-01-29T10:37:41.793Z,1.75
2018-01-29T10:40:22.885Z,2.00
2018-01-29T10:41:36.948Z,1.25
2018-01-29T10:45:15.811Z,2.25
2018-01-29T10:46:21.746Z,3.75
2018-01-29T10:47:33.418Z,2.00
2018-01-29T10:48:42.605Z,2.50
2018-01-29T10:58:11.734Z,2.50
2018-01-29T10:59:30.598Z,2.00
2018-01-29T11:04:31.106Z,1.50
2018-01-29T11:06:58.673Z,3.75
2018-01-29T11:08:13.130Z,3.75
2018-01-29T11:09:21.905Z,1.75
2018-01-29T11:10:52.188Z,1.75
2018-01-29T11:13:17.251Z,1.75
2018-01-29T11:14:25.050Z,3.00
2018-01-29T11:15:31.912Z,1.00
2018-01-29T11:16:39.295Z,3.00
2018-01-29T11:17:55.089Z,3.00
2018-01-29T11:19:13.868Z,1.50
2018-01-29T11:22:50.928Z,3.75
2018-01-29T11:25:37.429Z,3.75
2018-01-29T11:27:57.807Z,2.25
2018-01-29T11:29:18.509Z,1.00
2018-01-29T11:37:53.235Z,1.75
2018-01-29T11:45:34.907Z,4.00
2018-01-29T11:49:20.777Z,2.25
2018-01-29T11:56:28.241Z,3.25
2018-01-29T11:57:41.936Z,3.75
2018-01-29T12:00:06.006Z,1.00
2018-01-29T12:01:11.865Z,3.00
2018-01-29T12:06:21.354Z,1.00
2018-01-29T12:07:40.234Z,2.00
2018-01-29T12:20:13.081Z,3.00
2018-01-29T12:25:22.652Z,2.00
2018-01-29T19:55:52.182Z,7.00
2018-01-29T19:59:36.928Z,3.50
2018-01-29T20:03:40.555Z,4.00
2018-01-29T20:04:51.793Z,7.50
2018-01-29T20:07:18.346Z,8.50
2018-01-29T21:07:22.499Z,0.00
2018-01-29T21:11:20.727Z,0.00
2018-01-29T21:12:35.558Z,2.00
2018-01-29T21:13:58.442Z,2.00
2018-01-29T21:21:37.059Z,0.00
2018-01-29T21:22:46.820Z,0.00
2018-01-29T21:24:08.927Z,0.50
2018-01-29T21:25:17.677Z,2.00
2018-01-29T21:55:51.141Z,4.00
2018-01-29T22:04:58.609Z,4.00
2018-01-29T22:08:00.046Z,3.50
2018-01-29T22:10:34.167Z,3.50
2018-01-29T22:11:48.858Z,2.00
2018-01-29T22:27:06.524Z,1.50
2018-01-29T22:32:04.980Z,1.50
2018-01-29T22:33:10.499Z,2.00
2018-01-29T22:35:38.691Z,1.00
2018-01-29T22:38:29.418Z,1.50
2018-01-29T22:39:45.181Z,2.00
2018-01-29T22:41:15.054Z,2.00
2018-01-29T22:47:12.725Z,4.00
2018-01-29T22:48:32.901Z,2.00
2018-01-29T22:58:48.817Z,3.50
